Time;durP1;ratioP1;P1;durP2;ratioP2;P2;SDS_P1;SDS_P2;PMS_P1;PMS_P2;Temp;Humidity;BMP_temperature;BMP_pressure;BME280_temperature;BME280_humidity;BME280_pressure;Samples;Min_cycle;Max_cycle;Signal;HPM_P1;HPM_P2
2022/05/26 00:02:11;;;;;;;1.53;1.20;;;15.10;98.90;;;;;;5999663;23;20490;-79
2022/05/26 00:04:38;;;;;;;2.70;1.10;;;15.10;98.90;;;;;;5993233;23;20991;-79
2022/05/26 00:07:05;;;;;;;2.63;1.10;;;15.10;98.90;;;;;;6003019;23;20449;-79
2022/05/26 00:09:33;;;;;;;1.60;1.03;;;15.20;99.00;;;;;;6000252;23;20447;-79
2022/05/26 00:12:00;;;;;;;1.97;1.00;;;15.20;99.00;;;;;;6000213;23;20465;-79
2022/05/26 00:14:30;;;;;;;1.27;0.90;;;15.30;99.20;;;;;;6002454;23;20439;-79
2022/05/26 00:16:58;;;;;;;1.00;0.93;;;15.30;99.30;;;;;;5989083;23;20969;-79
2022/05/26 00:19:25;;;;;;;2.30;0.90;;;15.30;99.40;;;;;;5999584;23;20520;-79
2022/05/26 00:21:52;;;;;;;1.73;1.10;;;15.30;99.60;;;;;;5998455;23;20544;-79
2022/05/26 00:24:20;;;;;;;1.13;0.90;;;15.30;99.90;;;;;;5999416;23;20850;-79
2022/05/26 00:26:49;;;;;;;1.60;1.10;;;15.30;99.90;;;;;;6000177;23;20442;-79
2022/05/26 00:29:15;;;;;;;1.40;0.80;;;15.20;99.90;;;;;;5998772;23;20443;-79
2022/05/26 00:31:43;;;;;;;2.30;0.90;;;15.30;99.90;;;;;;5997686;23;20465;-78
2022/05/26 00:34:10;;;;;;;1.70;0.80;;;15.20;99.90;;;;;;5996299;23;21226;-79
2022/05/26 00:36:41;;;;;;;1.20;1.00;;;15.20;99.90;;;;;;6002442;23;20445;-79
2022/05/26 00:39:11;;;;;;;2.10;1.00;;;15.20;99.90;;;;;;5995395;23;20457;-79
2022/05/26 00:41:44;;;;;;;1.67;1.20;;;15.20;99.90;;;;;;5998041;23;20497;-79
2022/05/26 00:44:13;;;;;;;1.20;0.80;;;15.20;99.90;;;;;;6002072;23;20517;-79
2022/05/26 00:46:47;;;;;;;0.90;0.80;;;15.20;99.90;;;;;;5992637;23;20964;-79
2022/05/26 00:49:22;;;;;;;1.20;1.10;;;15.20;99.90;;;;;;5991075;23;20449;-79
2022/05/26 00:51:49;;;;;;;1.10;1.00;;;15.20;99.90;;;;;;5998371;23;20460;-79
2022/05/26 00:54:20;;;;;;;1.20;1.00;;;15.20;99.90;;;;;;5997551;23;20865;-79
2022/05/26 00:56:52;;;;;;;0.97;0.80;;;15.20;99.90;;;;;;5983806;23;20470;-79
2022/05/26 00:59:28;;;;;;;2.10;0.90;;;15.20;99.90;;;;;;5999137;23;20544;-79
2022/05/26 01:01:57;;;;;;;1.40;0.93;;;15.20;99.90;;;;;;5990307;23;20481;-78
2022/05/26 01:04:28;;;;;;;1.27;1.17;;;15.20;99.90;;;;;;5998409;23;20451;-79
2022/05/26 01:07:01;;;;;;;1.10;1.00;;;15.20;99.90;;;;;;5998294;23;20944;-79
2022/05/26 01:09:28;;;;;;;1.33;1.10;;;15.20;99.90;;;;;;5998465;23;20445;-79
2022/05/26 01:11:55;;;;;;;2.80;1.20;;;15.30;99.90;;;;;;5998490;23;21154;-78
2022/05/26 01:14:27;;;;;;;1.23;0.90;;;15.30;99.90;;;;;;5999068;23;20520;-79
2022/05/26 01:17:07;;;;;;;1.50;1.10;;;15.30;99.90;;;;;;5990315;23;20441;-79
2022/05/26 01:20:08;;;;;;;1.50;0.93;;;15.30;99.90;;;;;;5997103;23;20485;-79
2022/05/26 01:22:52;;;;;;;1.10;0.80;;;15.30;99.90;;;;;;5997832;23;20472;-79
2022/05/26 01:25:39;;;;;;;1.03;0.90;;;15.20;99.90;;;;;;6002259;23;20515;-79
2022/05/26 01:28:20;;;;;;;4.43;1.20;;;15.20;99.90;;;;;;5989430;23;20455;-79
2022/05/26 01:30:53;;;;;;;1.20;1.10;;;15.10;99.90;;;;;;6000353;23;21410;-79
2022/05/26 01:33:43;;;;;;;3.80;1.10;;;15.20;99.90;;;;;;5992563;23;20441;-79
2022/05/26 01:36:25;;;;;;;1.67;1.13;;;15.20;99.90;;;;;;5990637;23;20499;-79
2022/05/26 01:39:06;;;;;;;2.80;1.20;;;15.20;99.90;;;;;;5998937;23;20530;-78
2022/05/26 01:41:48;;;;;;;1.73;0.90;;;15.10;99.90;;;;;;5997795;23;20465;-79
2022/05/26 01:44:24;;;;;;;1.53;0.93;;;15.00;99.90;;;;;;5991536;23;20473;-79
2022/05/26 01:46:52;;;;;;;1.40;1.10;;;14.90;99.90;;;;;;5993343;23;20846;-79
2022/05/26 01:49:27;;;;;;;1.37;1.07;;;14.80;99.90;;;;;;5996589;23;20511;-79
2022/05/26 01:52:01;;;;;;;1.23;1.13;;;14.70;99.90;;;;;;5983863;23;20868;-79
2022/05/26 01:54:33;;;;;;;1.57;1.10;;;14.70;99.90;;;;;;6001600;23;20992;-79
2022/05/26 01:57:05;;;;;;;1.23;1.10;;;14.60;99.90;;;;;;5989948;23;20477;-79
2022/05/26 01:59:38;;;;;;;2.23;1.20;;;14.50;99.90;;;;;;5992860;23;20852;-79
2022/05/26 02:02:08;;;;;;;1.00;0.80;;;14.40;99.90;;;;;;5995780;23;20494;-79
2022/05/26 02:04:40;;;;;;;2.10;0.97;;;14.40;99.90;;;;;;5997020;23;20467;-79
2022/05/26 02:07:13;;;;;;;1.33;1.23;;;14.40;99.90;;;;;;5994859;23;20448;-78
2022/05/26 02:09:43;;;;;;;2.40;1.10;;;14.30;99.90;;;;;;5989560;23;20537;-78
2022/05/26 02:12:17;;;;;;;1.97;1.17;;;14.30;99.90;;;;;;6001853;23;20465;-78
2022/05/26 02:14:47;;;;;;;1.23;0.80;;;14.30;99.90;;;;;;6001412;23;20453;-78
2022/05/26 02:17:19;;;;;;;1.70;1.00;;;14.30;99.90;;;;;;6000263;23;20533;-78
2022/05/26 02:19:51;;;;;;;1.20;0.93;;;14.30;99.90;;;;;;5999506;23;20626;-78
2022/05/26 02:22:21;;;;;;;1.67;0.97;;;14.30;99.90;;;;;;5999621;23;20217;-79
2022/05/26 02:24:54;;;;;;;1.30;1.00;;;14.30;99.90;;;;;;5987732;23;20990;-79
2022/05/26 02:27:21;;;;;;;1.73;1.00;;;14.30;99.90;;;;;;5999764;23;20445;-78
2022/05/26 02:29:56;;;;;;;1.33;1.10;;;14.30;99.90;;;;;;5988693;23;20534;-79
2022/05/26 02:32:27;;;;;;;1.43;1.00;;;14.30;99.90;;;;;;6000087;23;20453;-79
2022/05/26 02:34:58;;;;;;;1.57;1.00;;;14.30;99.90;;;;;;6001469;23;20495;-78
2022/05/26 02:37:26;;;;;;;1.87;1.00;;;14.30;99.90;;;;;;5989867;23;20480;-78
2022/05/26 02:39:53;;;;;;;2.20;1.00;;;14.30;99.90;;;;;;5997121;23;20437;-79
2022/05/26 02:42:21;;;;;;;2.30;1.00;;;14.40;99.90;;;;;;6002310;23;20456;-79
2022/05/26 02:44:49;;;;;;;1.87;0.90;;;14.30;99.90;;;;;;5988654;23;20536;-79
2022/05/26 02:47:31;;;;;;;1.20;0.90;;;14.40;99.90;;;;;;5995490;23;20491;-79
2022/05/26 02:50:16;;;;;;;0.90;0.80;;;14.40;99.90;;;;;;6009811;23;20437;-78
2022/05/26 02:52:53;;;;;;;1.40;1.03;;;14.50;99.90;;;;;;6000956;23;20469;-79
2022/05/26 02:55:30;;;;;;;1.87;0.70;;;14.50;99.90;;;;;;6005141;23;20507;-78
2022/05/26 02:58:03;;;;;;;1.87;1.00;;;14.60;99.90;;;;;;5997586;23;20507;-79
2022/05/26 03:00:44;;;;;;;1.40;1.27;;;14.70;99.90;;;;;;5987433;23;20549;-79
2022/05/26 03:03:19;;;;;;;1.63;1.10;;;14.70;99.90;;;;;;6002735;23;21059;-79
2022/05/26 03:05:53;;;;;;;1.63;1.03;;;14.70;99.90;;;;;;6001731;23;20479;-79
2022/05/26 03:08:22;;;;;;;1.67;1.00;;;14.70;99.90;;;;;;5986323;23;20453;-78
2022/05/26 03:10:52;;;;;;;1.20;1.00;;;14.80;99.90;;;;;;5999768;23;20463;-78
2022/05/26 03:13:19;;;;;;;1.33;0.90;;;14.70;99.90;;;;;;6003421;23;20476;-78
2022/05/26 03:15:46;;;;;;;1.00;0.90;;;14.70;99.90;;;;;;5994776;23;20449;-78
2022/05/26 03:18:13;;;;;;;2.40;0.90;;;14.80;99.90;;;;;;5999763;23;20472;-79
2022/05/26 03:20:40;;;;;;;2.17;0.80;;;14.80;99.90;;;;;;5989400;23;20997;-79
2022/05/26 03:23:08;;;;;;;1.43;1.00;;;14.80;99.90;;;;;;5998361;23;20538;-79
2022/05/26 03:25:35;;;;;;;1.53;0.90;;;14.80;99.90;;;;;;5993158;23;20524;-79
2022/05/26 03:28:02;;;;;;;1.00;0.90;;;14.80;99.90;;;;;;5995790;23;20437;-79
2022/05/26 03:30:29;;;;;;;2.00;1.03;;;14.80;99.90;;;;;;5996450;23;20434;-79
2022/05/26 03:32:56;;;;;;;2.60;1.10;;;14.80;99.90;;;;;;5993982;23;20529;-79
2022/05/26 03:41:05;;;;;;;1.30;0.80;;;14.70;99.90;;;;;;6002947;23;20507;-79
2022/05/26 03:43:36;;;;;;;1.23;0.80;;;14.70;99.90;;;;;;5996625;23;20456;-79
2022/05/26 03:46:03;;;;;;;2.30;1.00;;;14.70;99.90;;;;;;6004770;23;20441;-79
2022/05/26 03:48:30;;;;;;;2.07;1.00;;;14.70;99.90;;;;;;6002723;23;20528;-79
2022/05/26 03:50:58;;;;;;;1.67;0.80;;;14.60;99.90;;;;;;5997541;23;20999;-79
2022/05/26 03:53:26;;;;;;;2.10;0.90;;;14.60;99.90;;;;;;6000411;23;20851;-79
2022/05/26 03:55:54;;;;;;;2.90;1.00;;;14.60;99.90;;;;;;5999108;23;20762;-78
2022/05/26 03:58:21;;;;;;;1.10;0.90;;;14.60;99.90;;;;;;5994233;23;21004;-79
2022/05/26 04:00:48;;;;;;;1.73;0.70;;;14.60;99.90;;;;;;6006531;23;20464;-79
2022/05/26 04:03:15;;;;;;;1.13;0.70;;;14.60;99.90;;;;;;5998917;23;20455;-78
2022/05/26 04:05:42;;;;;;;1.90;1.00;;;14.60;99.90;;;;;;5990391;23;20528;-78
2022/05/26 04:08:09;;;;;;;1.03;0.90;;;14.70;99.90;;;;;;6001566;23;20456;-79
2022/05/26 04:10:37;;;;;;;1.43;0.90;;;14.70;99.90;;;;;;6002897;23;20824;-78
2022/05/26 04:13:05;;;;;;;0.97;0.83;;;14.70;99.90;;;;;;6002078;23;20456;-79
2022/05/26 04:15:32;;;;;;;2.30;1.00;;;14.70;99.90;;;;;;5993721;23;20605;-79
2022/05/26 04:17:59;;;;;;;1.53;1.20;;;14.70;99.90;;;;;;5988120;23;20542;-78
2022/05/26 04:20:26;;;;;;;1.23;1.00;;;14.60;99.90;;;;;;6002234;23;20996;-79
2022/05/26 04:22:53;;;;;;;1.43;0.97;;;14.60;99.90;;;;;;6001088;23;20444;-79
2022/05/26 04:25:22;;;;;;;0.80;0.80;;;14.70;99.90;;;;;;5998874;23;20538;-79
2022/05/26 04:27:53;;;;;;;2.23;0.90;;;14.70;99.90;;;;;;5994660;23;20480;-79
2022/05/26 04:30:21;;;;;;;1.37;0.97;;;14.80;99.90;;;;;;5996067;23;21213;-79
2022/05/26 04:32:47;;;;;;;0.73;0.73;;;14.80;99.90;;;;;;6003623;23;20941;-78
2022/05/26 04:35:15;;;;;;;2.10;0.90;;;14.80;99.90;;;;;;5995236;23;20442;-79
2022/05/26 04:37:42;;;;;;;1.10;0.90;;;14.80;99.90;;;;;;6004096;23;20551;-79
2022/05/26 04:40:13;;;;;;;1.13;1.03;;;14.80;99.90;;;;;;5995976;23;20449;-79
2022/05/26 04:42:41;;;;;;;1.93;1.10;;;14.80;99.90;;;;;;6003609;23;20449;-79
2022/05/26 04:45:13;;;;;;;1.97;1.13;;;14.70;99.90;;;;;;5992528;23;20476;-79
2022/05/26 04:47:40;;;;;;;1.77;1.00;;;14.70;99.90;;;;;;5993196;23;20502;-79
2022/05/26 04:50:09;;;;;;;1.30;1.20;;;14.70;99.90;;;;;;5988260;23;20449;-79
2022/05/26 04:52:36;;;;;;;1.97;1.20;;;14.60;99.90;;;;;;5993557;23;20441;-79
2022/05/26 04:55:05;;;;;;;1.00;0.90;;;14.60;99.90;;;;;;6001598;23;20452;-79
2022/05/26 04:57:32;;;;;;;2.07;0.87;;;14.60;99.90;;;;;;5994524;23;20453;-79
2022/05/26 04:59:59;;;;;;;3.23;0.90;;;14.60;99.90;;;;;;6002478;23;20442;-79
2022/05/26 05:02:27;;;;;;;1.00;0.90;;;14.60;99.90;;;;;;6003481;23;20469;-79
2022/05/26 05:04:54;;;;;;;1.90;1.10;;;14.60;99.90;;;;;;5996673;23;20802;-79
2022/05/26 05:07:21;;;;;;;0.80;0.80;;;14.70;99.90;;;;;;5996553;23;20877;-79
2022/05/26 05:09:49;;;;;;;1.00;0.80;;;14.70;99.90;;;;;;6002610;23;20496;-79
2022/05/26 05:12:18;;;;;;;1.53;1.00;;;14.70;99.90;;;;;;5998777;23;21056;-79
2022/05/26 05:14:47;;;;;;;0.90;0.80;;;14.70;99.90;;;;;;5991153;23;20442;-78
2022/05/26 05:17:16;;;;;;;1.30;1.00;;;14.80;99.90;;;;;;5999583;23;20532;-79
2022/05/26 05:19:44;;;;;;;1.70;1.00;;;14.80;99.90;;;;;;6001599;23;20441;-79
2022/05/26 05:22:19;;;;;;;1.50;0.90;;;14.80;99.90;;;;;;5993738;23;20548;-79
2022/05/26 05:24:50;;;;;;;1.37;0.90;;;14.90;99.90;;;;;;5996305;23;20465;-78
2022/05/26 05:27:22;;;;;;;2.40;0.93;;;14.90;99.90;;;;;;5996322;23;20461;-78
2022/05/26 05:29:53;;;;;;;1.10;1.00;;;14.90;99.90;;;;;;5994891;23;21019;-78
2022/05/26 05:32:25;;;;;;;1.63;0.90;;;15.00;99.90;;;;;;6006492;23;20503;-80
2022/05/26 05:35:02;;;;;;;1.97;1.00;;;15.00;99.90;;;;;;6006769;23;20454;-81
2022/05/26 05:37:31;;;;;;;2.27;1.10;;;15.00;99.90;;;;;;6001174;23;20433;-79
2022/05/26 05:39:59;;;;;;;1.53;0.93;;;15.00;99.90;;;;;;6000329;23;20453;-79
2022/05/26 05:42:26;;;;;;;1.43;0.97;;;15.00;99.90;;;;;;6002089;23;20512;-77
2022/05/26 05:44:53;;;;;;;1.30;1.00;;;14.90;99.90;;;;;;5989458;23;20563;-78
2022/05/26 05:47:20;;;;;;;1.30;1.10;;;15.00;99.90;;;;;;5998697;23;20453;-78
2022/05/26 05:49:49;;;;;;;1.57;1.00;;;15.00;99.90;;;;;;5991501;23;20449;-78
2022/05/26 05:52:21;;;;;;;2.20;0.90;;;15.00;99.90;;;;;;5993832;23;20462;-79
2022/05/26 05:54:48;;;;;;;1.50;1.20;;;15.10;99.90;;;;;;5988275;23;20528;-79
2022/05/26 05:57:15;;;;;;;1.60;1.10;;;15.30;99.90;;;;;;5999768;23;20443;-79
2022/05/26 05:59:42;;;;;;;4.30;1.30;;;15.50;99.90;;;;;;5996490;23;20516;-78
2022/05/26 06:02:10;;;;;;;2.03;1.07;;;15.60;99.90;;;;;;5997234;23;20564;-78
2022/05/26 06:04:41;;;;;;;1.50;1.40;;;15.60;99.90;;;;;;5988964;23;20476;-78
2022/05/26 06:07:13;;;;;;;1.13;0.87;;;15.60;99.90;;;;;;6000568;23;20440;-79
2022/05/26 06:09:41;;;;;;;1.00;0.90;;;15.70;99.90;;;;;;5995525;23;20467;-79
2022/05/26 06:12:09;;;;;;;1.77;0.90;;;15.70;99.90;;;;;;5997292;23;21169;-79
2022/05/26 06:14:36;;;;;;;0.97;0.70;;;15.70;99.90;;;;;;5984128;23;20448;-78
2022/05/26 06:17:03;;;;;;;2.40;1.27;;;15.90;99.90;;;;;;5993974;23;20977;-78
2022/05/26 06:19:30;;;;;;;1.60;0.90;;;15.90;99.90;;;;;;5997943;23;20516;-78
2022/05/26 06:21:57;;;;;;;1.20;0.90;;;15.90;99.90;;;;;;5989446;23;20576;-72
2022/05/26 06:24:25;;;;;;;0.87;0.80;;;16.00;99.90;;;;;;5994528;23;20887;-71
2022/05/26 06:26:53;;;;;;;1.87;0.90;;;16.10;99.90;;;;;;5996251;23;20448;-70
2022/05/26 06:37:50;;;;;;;1.67;0.90;;;16.70;99.90;;;;;;5974322;23;20447;-71
2022/05/26 06:40:17;;;;;;;1.20;1.07;;;16.90;99.90;;;;;;5998086;23;20539;-71
2022/05/26 06:42:47;;;;;;;1.73;1.00;;;17.00;99.90;;;;;;5993055;23;20450;-71
2022/05/26 06:45:18;;;;;;;1.10;0.90;;;17.00;99.90;;;;;;5990439;23;20521;-72
2022/05/26 06:47:45;;;;;;;1.47;0.90;;;17.20;99.90;;;;;;5986177;23;20511;-72
2022/05/26 06:50:12;;;;;;;1.63;1.20;;;17.30;99.90;;;;;;5998217;23;20535;-79
2022/05/26 06:52:39;;;;;;;2.07;0.90;;;17.30;99.90;;;;;;5992373;23;20442;-79
2022/05/26 06:55:08;;;;;;;1.00;0.90;;;17.40;99.90;;;;;;5984684;23;20924;-78
2022/05/26 06:57:35;;;;;;;1.00;0.90;;;17.40;99.90;;;;;;5997614;23;20439;-79
2022/05/26 07:00:06;;;;;;;1.23;0.80;;;17.60;99.90;;;;;;5990508;23;20767;-79
2022/05/26 07:02:33;;;;;;;1.60;0.97;;;17.70;99.90;;;;;;5998389;23;20491;-86
2022/05/26 07:05:00;;;;;;;3.63;1.00;;;17.60;99.90;;;;;;5988135;23;20570;-86
2022/05/26 07:07:27;;;;;;;1.60;0.97;;;17.40;99.90;;;;;;5996618;23;20500;-79
2022/05/26 07:09:55;;;;;;;1.77;0.97;;;17.40;99.90;;;;;;5985450;23;20441;-80
2022/05/26 07:12:23;;;;;;;3.23;1.20;;;17.40;99.90;;;;;;5978940;23;20525;-78
2022/05/26 07:14:50;;;;;;;1.80;0.90;;;17.50;99.90;;;;;;5990593;23;20520;-77
2022/05/26 07:17:19;;;;;;;1.77;1.10;;;17.70;99.90;;;;;;5991308;23;20443;-77
2022/05/26 07:19:46;;;;;;;1.23;0.90;;;17.90;99.90;;;;;;5983985;23;20516;-78
2022/05/26 07:22:13;;;;;;;1.87;1.10;;;18.00;99.90;;;;;;5991868;23;20445;-78
2022/05/26 07:24:41;;;;;;;1.33;0.90;;;18.20;99.90;;;;;;5982562;23;21025;-78
2022/05/26 07:27:09;;;;;;;2.07;0.83;;;18.40;99.90;;;;;;6000135;23;20726;-78
2022/05/26 07:29:36;;;;;;;1.00;0.80;;;18.80;99.90;;;;;;5996216;23;20561;-78
2022/05/26 07:32:04;;;;;;;1.83;1.10;;;19.20;99.70;;;;;;5990670;23;20453;-78
2022/05/26 07:34:32;;;;;;;1.53;0.90;;;19.50;99.20;;;;;;5980362;23;20477;-78
2022/05/26 07:42:32;;;;;;;2.37;0.83;;;19.80;98.20;;;;;;5994743;23;20438;-78
2022/05/26 07:45:01;;;;;;;1.60;0.90;;;19.50;97.90;;;;;;5995697;23;20479;-78
2022/05/26 07:47:29;;;;;;;2.60;1.10;;;19.40;98.40;;;;;;5997676;23;20446;-78
2022/05/26 07:49:58;;;;;;;1.00;0.70;;;19.50;97.90;;;;;;6001130;23;20508;-78
2022/05/26 07:52:25;;;;;;;2.23;0.87;;;19.40;97.40;;;;;;5990940;23;20444;-78
2022/05/26 07:54:52;;;;;;;1.50;1.20;;;19.20;97.80;;;;;;5985899;23;20458;-78
2022/05/26 07:57:22;;;;;;;2.40;1.00;;;19.20;97.90;;;;;;5990510;23;20452;-78
2022/05/26 07:59:50;;;;;;;1.20;0.80;;;19.30;98.10;;;;;;5996276;23;20520;-78
2022/05/26 08:02:17;;;;;;;1.27;0.80;;;19.30;97.80;;;;;;5994057;23;20481;-85
2022/05/26 08:04:45;;;;;;;2.00;0.90;;;19.30;97.70;;;;;;5992346;23;20501;-79
2022/05/26 08:07:14;;;;;;;1.43;0.90;;;19.50;97.80;;;;;;5990961;23;20455;-78
2022/05/26 08:09:42;;;;;;;1.97;0.90;;;19.70;97.60;;;;;;5989103;23;20488;-77
2022/05/26 08:12:11;;;;;;;1.77;0.90;;;19.80;97.30;;;;;;5986655;23;20457;-79
2022/05/26 08:14:39;;;;;;;2.83;1.03;;;19.90;97.10;;;;;;5986128;23;20449;-79
2022/05/26 08:17:06;;;;;;;3.00;1.37;;;20.10;96.70;;;;;;5982409;23;20514;-73
2022/05/26 08:19:34;;;;;;;1.67;1.10;;;20.20;96.40;;;;;;5987101;23;20933;-77
2022/05/26 08:22:01;;;;;;;1.27;1.10;;;20.20;96.80;;;;;;5989563;23;20449;-77
2022/05/26 08:24:30;;;;;;;4.77;1.23;;;20.20;96.20;;;;;;5985022;23;20544;-78
2022/05/26 08:26:57;;;;;;;1.10;0.77;;;20.00;96.40;;;;;;5975023;23;20555;-81
2022/05/26 08:29:24;;;;;;;1.50;0.80;;;20.00;96.80;;;;;;5990495;23;20564;-81
2022/05/26 08:31:57;;;;;;;0.87;0.87;;;20.00;96.50;;;;;;5977473;23;20477;-78
2022/05/26 08:34:24;;;;;;;1.80;0.90;;;19.90;96.20;;;;;;5972750;23;20453;-78
2022/05/26 08:36:51;;;;;;;3.27;1.07;;;19.80;96.40;;;;;;5980538;23;20443;-79
2022/05/26 08:39:18;;;;;;;1.20;0.97;;;19.70;96.60;;;;;;5982810;23;20554;-79
2022/05/26 08:41:51;;;;;;;1.87;0.90;;;19.80;96.60;;;;;;5979500;23;20494;-79
2022/05/26 08:44:26;;;;;;;2.77;1.00;;;20.00;96.50;;;;;;5976523;23;20889;-79
2022/05/26 08:47:01;;;;;;;1.10;1.00;;;20.30;95.80;;;;;;5988770;23;20468;-78
2022/05/26 08:49:35;;;;;;;1.20;1.10;;;20.30;95.80;;;;;;5982768;23;20433;-77
2022/05/26 08:52:09;;;;;;;1.53;1.43;;;20.40;95.90;;;;;;5983947;23;20465;-77
2022/05/26 08:54:41;;;;;;;2.33;1.17;;;20.60;95.80;;;;;;5984535;23;20485;-78
2022/05/26 08:57:14;;;;;;;1.67;1.10;;;20.40;95.80;;;;;;5984028;23;20461;-78
2022/05/26 08:59:44;;;;;;;1.33;0.87;;;20.40;95.90;;;;;;5986796;23;20441;-78
2022/05/26 09:02:23;;;;;;;1.40;1.03;;;20.50;95.90;;;;;;5986564;23;20473;-78
2022/05/26 09:04:50;;;;;;;2.63;0.80;;;20.70;95.70;;;;;;5984231;23;20508;-78
2022/05/26 09:12:57;;;;;;;3.00;1.60;;;21.30;94.60;;;;;;5986289;23;20479;-78
2022/05/26 09:15:24;;;;;;;1.33;0.80;;;21.50;94.50;;;;;;5974578;23;20776;-77
2022/05/26 09:17:51;;;;;;;1.93;1.10;;;21.70;94.30;;;;;;5982320;23;20520;-79
2022/05/26 09:20:33;;;;;;;1.50;1.00;;;21.90;94.80;;;;;;5986684;23;20544;-78
2022/05/26 09:23:12;;;;;;;3.47;1.10;;;22.20;93.60;;;;;;5984472;23;20450;-78
2022/05/26 09:25:46;;;;;;;1.33;1.00;;;22.40;93.20;;;;;;5984060;23;20480;-80
2022/05/26 09:28:27;;;;;;;1.43;1.00;;;22.30;92.90;;;;;;5977087;23;20459;-79
2022/05/26 09:30:54;;;;;;;1.47;1.03;;;22.30;93.00;;;;;;5987949;23;20457;-79
2022/05/26 09:33:29;;;;;;;1.03;0.90;;;22.10;93.40;;;;;;5989278;23;20442;-79
2022/05/26 09:36:14;;;;;;;2.03;1.13;;;22.00;92.90;;;;;;5991977;23;20440;-78
2022/05/26 09:38:43;;;;;;;2.07;1.00;;;21.90;92.80;;;;;;5996129;23;20476;-79
2022/05/26 09:41:15;;;;;;;2.20;1.17;;;22.00;93.50;;;;;;5996165;23;20543;-78
2022/05/26 09:43:48;;;;;;;1.93;0.90;;;22.10;93.00;;;;;;5987254;23;20444;-79
2022/05/26 09:46:17;;;;;;;2.40;1.00;;;22.00;93.00;;;;;;5992382;23;20503;-79
2022/05/26 09:48:46;;;;;;;1.30;1.10;;;22.10;93.10;;;;;;5986835;23;20500;-79
2022/05/26 09:51:21;;;;;;;0.93;0.70;;;22.10;92.70;;;;;;5996551;23;20984;-78
2022/05/26 09:53:50;;;;;;;1.70;1.10;;;21.90;92.80;;;;;;5998161;23;20986;-78
2022/05/26 09:56:29;;;;;;;1.37;1.00;;;21.40;93.00;;;;;;5979743;23;20477;-79
2022/05/26 09:58:59;;;;;;;1.40;1.00;;;20.90;94.40;;;;;;5981536;23;20520;-79
2022/05/26 10:01:41;;;;;;;1.10;0.97;;;20.70;93.90;;;;;;5988850;23;20973;-78
2022/05/26 10:04:18;;;;;;;2.20;1.03;;;20.60;94.00;;;;;;5989402;23;20452;-78
2022/05/26 10:06:51;;;;;;;1.83;0.90;;;20.60;94.30;;;;;;5985110;23;20473;-79
2022/05/26 10:09:27;;;;;;;1.60;1.00;;;20.70;94.60;;;;;;5985993;23;20534;-72
2022/05/26 10:12:03;;;;;;;2.57;0.90;;;20.40;94.90;;;;;;5987759;23;20437;-72
2022/05/26 10:14:42;;;;;;;2.07;0.80;;;20.10;95.50;;;;;;5983980;23;20832;-79
2022/05/26 10:17:19;;;;;;;1.10;0.80;;;20.30;95.10;;;;;;5990781;23;20444;-79
2022/05/26 10:20:25;;;;;;;1.83;1.30;;;20.40;95.10;;;;;;5984800;23;20531;-78
2022/05/26 10:23:09;;;;;;;2.70;1.20;;;20.30;95.00;;;;;;5985463;23;20479;-79
2022/05/26 10:25:44;;;;;;;1.80;0.93;;;20.40;95.50;;;;;;5992988;23;20489;-78
2022/05/26 10:28:46;;;;;;;2.87;1.10;;;20.70;94.90;;;;;;5994336;23;20508;-78
2022/05/26 10:31:29;;;;;;;1.13;1.00;;;21.10;95.00;;;;;;5990031;23;20491;-79
2022/05/26 10:34:15;;;;;;;2.30;1.00;;;21.40;94.80;;;;;;5987573;23;20472;-79
2022/05/26 10:36:58;;;;;;;1.13;0.83;;;21.20;94.70;;;;;;5996480;23;20445;-79
2022/05/26 10:39:35;;;;;;;3.00;0.90;;;20.90;94.20;;;;;;5979239;23;20483;-79
2022/05/26 10:42:08;;;;;;;1.33;1.00;;;21.00;94.50;;;;;;5984147;23;20443;-79
2022/05/26 10:44:42;;;;;;;1.80;0.87;;;21.20;94.70;;;;;;5996268;23;20465;-79
2022/05/26 10:47:16;;;;;;;1.10;0.90;;;21.50;94.40;;;;;;5986774;23;20444;-79
2022/05/26 10:49:48;;;;;;;1.27;1.10;;;21.30;93.40;;;;;;5992587;23;21045;-80
2022/05/26 10:52:22;;;;;;;3.67;1.10;;;20.80;94.40;;;;;;5991178;23;20483;-79
2022/05/26 10:54:55;;;;;;;1.17;1.00;;;20.60;95.20;;;;;;5987848;23;20484;-79
2022/05/26 10:57:31;;;;;;;1.47;0.90;;;20.40;95.20;;;;;;5978096;23;20446;-78
2022/05/26 11:00:02;;;;;;;2.83;1.13;;;20.20;95.30;;;;;;5987720;23;20593;-79
2022/05/26 11:02:37;;;;;;;4.20;1.40;;;20.20;95.40;;;;;;6002427;23;21028;-79
2022/05/26 11:05:08;;;;;;;1.67;1.20;;;20.30;96.20;;;;;;5993385;23;20475;-79
2022/05/26 11:07:40;;;;;;;1.77;1.00;;;20.60;95.70;;;;;;5997325;23;20517;-78
2022/05/26 11:10:11;;;;;;;2.43;1.23;;;20.90;95.00;;;;;;5993289;23;20469;-79
2022/05/26 11:12:44;;;;;;;1.30;1.10;;;20.90;94.90;;;;;;5995678;23;20940;-78
2022/05/26 11:18:16;;;;;;;2.67;1.30;;;20.80;95.30;;;;;;5960888;23;20469;-79
2022/05/26 11:20:50;;;;;;;1.60;1.50;;;21.00;95.10;;;;;;5998460;23;20464;-81
2022/05/26 11:23:18;;;;;;;2.33;1.50;;;21.10;95.00;;;;;;5989082;23;20482;-82
2022/05/26 11:25:57;;;;;;;1.90;1.10;;;21.30;94.90;;;;;;5986716;23;20599;-79
2022/05/26 11:28:31;;;;;;;2.03;1.40;;;21.50;95.10;;;;;;5989804;23;20448;-79
2022/05/26 11:36:47;;;;;;;2.93;1.47;;;21.30;94.80;;;;;;5993592;23;20437;-79
2022/05/26 11:39:22;;;;;;;2.27;1.50;;;21.00;95.20;;;;;;5993743;23;20508;-79
2022/05/26 11:41:54;;;;;;;3.23;1.50;;;21.00;95.50;;;;;;6002589;23;20503;-79
2022/05/26 11:44:37;;;;;;;3.50;1.30;;;21.00;95.20;;;;;;6001403;23;20468;-79
2022/05/26 11:47:28;;;;;;;1.60;1.17;;;21.20;95.50;;;;;;6002663;23;20497;-79
2022/05/26 11:50:22;;;;;;;1.50;1.37;;;21.60;95.50;;;;;;6005468;23;20457;-79
2022/05/26 11:53:10;;;;;;;1.53;1.43;;;22.20;94.40;;;;;;5997645;23;20456;-79
2022/05/26 11:55:52;;;;;;;1.47;1.03;;;22.50;94.50;;;;;;5989506;23;20442;-79
2022/05/26 11:58:30;;;;;;;2.07;1.20;;;22.70;93.30;;;;;;5979157;23;20465;-78
2022/05/26 12:01:15;;;;;;;2.97;1.43;;;22.40;93.40;;;;;;5983218;23;20805;-77
2022/05/26 12:04:02;;;;;;;2.30;1.63;;;22.10;93.80;;;;;;5999215;23;20460;-79
2022/05/26 12:06:40;;;;;;;3.70;1.30;;;21.50;94.40;;;;;;5993395;23;20489;-79
2022/05/26 12:09:11;;;;;;;2.80;1.30;;;21.30;95.30;;;;;;6000483;23;20981;-79
2022/05/26 12:12:07;;;;;;;1.60;1.30;;;21.10;95.30;;;;;;5997553;23;20528;-79
2022/05/26 12:14:43;;;;;;;2.03;1.33;;;20.80;96.00;;;;;;5973306;23;20445;-79
2022/05/26 12:17:32;;;;;;;2.13;1.50;;;20.70;96.20;;;;;;5981637;23;20453;-79
2022/05/26 12:20:03;;;;;;;1.60;1.50;;;20.40;96.40;;;;;;5993512;23;21089;-79
2022/05/26 12:22:34;;;;;;;2.00;1.70;;;20.00;96.80;;;;;;5991113;23;20459;-79
2022/05/26 12:25:21;;;;;;;1.70;1.30;;;19.90;97.50;;;;;;5992702;23;20456;-79
2022/05/26 12:28:24;;;;;;;2.30;1.53;;;20.00;97.60;;;;;;6003325;23;20449;-79
2022/05/26 12:31:11;;;;;;;3.63;1.60;;;20.40;97.60;;;;;;5980893;23;20536;-79
2022/05/26 12:33:54;;;;;;;2.83;1.40;;;20.90;97.00;;;;;;5998928;23;20583;-80
2022/05/26 12:36:31;;;;;;;2.03;1.47;;;21.40;96.10;;;;;;5986816;23;20453;-80
2022/05/26 12:39:18;;;;;;;1.47;1.20;;;21.50;95.60;;;;;;5987458;23;20476;-79
2022/05/26 12:41:52;;;;;;;2.00;1.33;;;21.10;95.70;;;;;;5991288;23;20531;-79
2022/05/26 12:44:33;;;;;;;3.10;1.20;;;20.80;95.80;;;;;;5981894;23;20967;-79
2022/05/26 12:47:17;;;;;;;4.17;3.07;;;20.40;96.70;;;;;;5997723;23;20489;-79
2022/05/26 12:49:57;;;;;;;3.30;2.83;;;20.10;97.60;;;;;;5991599;23;20477;-79
2022/05/26 12:52:31;;;;;;;1.77;1.40;;;20.10;97.60;;;;;;6003932;23;20433;-79
2022/05/26 12:55:21;;;;;;;2.10;1.30;;;20.10;97.30;;;;;;5996357;23;20450;-79
2022/05/26 12:57:53;;;;;;;2.70;1.13;;;20.10;97.40;;;;;;6004277;23;20441;-79
2022/05/26 13:00:33;;;;;;;2.33;1.53;;;20.20;97.40;;;;;;6005177;23;20553;-79
2022/05/26 13:03:03;;;;;;;1.40;1.30;;;20.00;97.70;;;;;;6004982;23;21012;-79
2022/05/26 13:05:34;;;;;;;2.47;1.60;;;19.90;98.00;;;;;;5997711;23;21051;-79
2022/05/26 13:08:02;;;;;;;4.80;1.23;;;20.00;98.00;;;;;;6002802;23;20449;-79
2022/05/26 13:10:35;;;;;;;1.90;1.07;;;20.10;98.00;;;;;;5992967;23;20473;-79
2022/05/26 13:13:05;;;;;;;2.67;1.60;;;20.10;97.70;;;;;;5998389;23;20504;-79
2022/05/26 13:15:32;;;;;;;1.80;1.20;;;20.00;97.60;;;;;;6001734;23;20448;-79
2022/05/26 13:17:59;;;;;;;3.33;1.10;;;19.90;97.70;;;;;;6001453;23;20543;-79
2022/05/26 13:20:32;;;;;;;2.03;1.30;;;19.80;97.70;;;;;;5988173;23;20495;-83
2022/05/26 13:23:01;;;;;;;1.90;1.30;;;19.70;98.00;;;;;;5989886;23;20449;-83
2022/05/26 13:25:32;;;;;;;1.80;1.23;;;19.50;98.40;;;;;;5993059;23;20481;-78
2022/05/26 13:28:02;;;;;;;1.63;1.53;;;19.20;99.10;;;;;;6001314;23;20444;-79
2022/05/26 13:33:22;;;;;;;1.73;1.30;;;18.90;99.90;;;;;;6000317;23;20489;-79
2022/05/26 13:35:56;;;;;;;2.50;1.70;;;18.80;99.40;;;;;;5991105;23;20453;-79
2022/05/26 13:38:29;;;;;;;1.30;1.20;;;18.90;99.70;;;;;;5992304;23;20480;-79
2022/05/26 13:40:58;;;;;;;1.67;1.30;;;19.10;99.60;;;;;;5981685;23;20933;-80
2022/05/26 13:43:26;;;;;;;1.43;1.30;;;19.20;98.40;;;;;;6000840;23;20520;-79
2022/05/26 13:45:54;;;;;;;1.70;1.13;;;19.30;98.50;;;;;;5985769;23;20445;-80
2022/05/26 13:48:29;;;;;;;1.33;1.10;;;19.40;97.90;;;;;;6000900;23;20453;-79
2022/05/26 13:51:01;;;;;;;1.30;1.20;;;19.30;97.80;;;;;;5998218;23;20441;-78